MM32 weather

Puerto Libertad North Airport
Sonora, Mexico

Public forecast

Using degrees Celsius for public forecast. Weather courtesy of forecast.io.

METAR (pilot weather report)

Closest report is (Old) Puerto PeƱasco Airport, 96.7 nm (179.1 km) NNW. Retrieved UTC (0 seconds ago):

TAF (pilot weather forecast)

Forecast is more than 6 hours old.

Closest forecast is General Ignacio P. Garcia International Airport, 97.8 nm (181.1 km) ESE. Retrieved 2019/05/20 18:54 UTC (7 hours ago):

TAF MMHO 201649Z 2018/2118 26015KT P6SM SCT100 BKN200 FM210300 24010KT P6SM BKN200